sensor_id;sensor_type;location;lat;lon;timestamp;pressure;altitude;pressure_sealevel;temperature;humidity
74431;BME280;62863;52.062;23.764;2023-08-24T00:00:42;1026.7;;;16;69.9
74431;BME280;62863;52.062;23.764;2023-08-24T00:06:10;1026.7;;;15.9;70.3
74431;BME280;62863;52.062;23.764;2023-08-24T00:10:32;1026.7;;;15.9;71.3
74431;BME280;62863;52.062;23.764;2023-08-24T00:15:32;1026.7;;;15.8;71.3
74431;BME280;62863;52.062;23.764;2023-08-24T00:21:08;1026.6;;;15.7;71
74431;BME280;62863;52.062;23.764;2023-08-24T00:25:34;1026.6;;;15.6;70.9
74431;BME280;62863;52.062;23.764;2023-08-24T00:30:36;1026.6;;;15.6;71.2
74431;BME280;62863;52.062;23.764;2023-08-24T00:35:59;1026.6;;;15.5;70.6
74431;BME280;62863;52.062;23.764;2023-08-24T00:40:54;1026.5;;;15.4;70.3
74431;BME280;62863;52.062;23.764;2023-08-24T00:45:32;1026.5;;;15.4;70.3
74431;BME280;62863;52.062;23.764;2023-08-24T00:50:48;1026.5;;;15.3;70.3
74431;BME280;62863;52.062;23.764;2023-08-24T00:56:06;1026.5;;;15.3;70.3
74431;BME280;62863;52.062;23.764;2023-08-24T01:00:54;1026.5;;;15.2;70.4
74431;BME280;62863;52.062;23.764;2023-08-24T01:05:46;1026.5;;;15.2;71.5
74431;BME280;62863;52.062;23.764;2023-08-24T01:10:39;1026.5;;;15.2;71.7
74431;BME280;62863;52.062;23.764;2023-08-24T01:15:32;1026.5;;;15.1;71.8
74431;BME280;62863;52.062;23.764;2023-08-24T01:20:46;1026.5;;;15.1;71.9
74431;BME280;62863;52.062;23.764;2023-08-24T01:26:10;1026.5;;;15.1;71.6
74431;BME280;62863;52.062;23.764;2023-08-24T01:30:46;1026.5;;;15.1;71.4
74431;BME280;62863;52.062;23.764;2023-08-24T01:35:44;1026.4;;;15;70.9
74431;BME280;62863;52.062;23.764;2023-08-24T01:41:09;1026.4;;;15;70.9
74431;BME280;62863;52.062;23.764;2023-08-24T01:45:34;1026.4;;;14.9;70.8
74431;BME280;62863;52.062;23.764;2023-08-24T01:50:50;1026.4;;;14.8;70.8
74431;BME280;62863;52.062;23.764;2023-08-24T01:55:56;1026.4;;;14.7;70.5
74431;BME280;62863;52.062;23.764;2023-08-24T02:01:08;1026.4;;;14.7;71.1
74431;BME280;62863;52.062;23.764;2023-08-24T02:06:10;1026.4;;;14.7;72.1
74431;BME280;62863;52.062;23.764;2023-08-24T02:11:08;1026.4;;;14.6;72
74431;BME280;62863;52.062;23.764;2023-08-24T02:16:08;1026.4;;;14.6;71.7
74431;BME280;62863;52.062;23.764;2023-08-24T02:20:36;1026.4;;;14.6;71.9
74431;BME280;62863;52.062;23.764;2023-08-24T02:25:32;1026.3;;;14.5;72.3
74431;BME280;62863;52.062;23.764;2023-08-24T02:30:40;1026.3;;;14.5;72
74431;BME280;62863;52.062;23.764;2023-08-24T02:36:08;1026.3;;;14.4;71.7
74431;BME280;62863;52.062;23.764;2023-08-24T02:40:48;1026.3;;;14.4;71.8
74431;BME280;62863;52.062;23.764;2023-08-24T02:45:50;1026.3;;;14.3;72
74431;BME280;62863;52.062;23.764;2023-08-24T02:51:08;1026.3;;;14.3;72
74431;BME280;62863;52.062;23.764;2023-08-24T02:55:44;1026.4;;;14.3;72.2
74431;BME280;62863;52.062;23.764;2023-08-24T03:00:46;1026.4;;;14.3;73.2
74431;BME280;62863;52.062;23.764;2023-08-24T03:06:01;1026.4;;;14.3;73
74431;BME280;62863;52.062;23.764;2023-08-24T03:10:54;1026.5;;;14.3;73.1
74431;BME280;62863;52.062;23.764;2023-08-24T03:16:02;1026.5;;;14.3;73
74431;BME280;62863;52.062;23.764;2023-08-24T03:21:10;1026.5;;;14.3;72.5
74431;BME280;62863;52.062;23.764;2023-08-24T03:25:38;1026.5;;;14.3;72.6
74431;BME280;62863;52.062;23.764;2023-08-24T03:30:46;1026.5;;;14.3;72.3
74431;BME280;62863;52.062;23.764;2023-08-24T03:36:10;1026.4;;;14.3;72.1
74431;BME280;62863;52.062;23.764;2023-08-24T03:40:48;1026.4;;;14.3;72
74431;BME280;62863;52.062;23.764;2023-08-24T03:45:32;1026.5;;;14.4;71.8
74431;BME280;62863;52.062;23.764;2023-08-24T03:50:34;1026.5;;;14.5;71.7
74431;BME280;62863;52.062;23.764;2023-08-24T03:56:08;1026.4;;;14.6;71.3
74431;BME280;62863;52.062;23.764;2023-08-24T04:00:32;1026.4;;;14.8;71.3
74431;BME280;62863;52.062;23.764;2023-08-24T04:05:36;1026.4;;;14.9;70.6
74431;BME280;62863;52.062;23.764;2023-08-24T04:10:48;1026.4;;;15.1;70.5
74431;BME280;62863;52.062;23.764;2023-08-24T04:15:32;1026.4;;;15.4;70
74431;BME280;62863;52.062;23.764;2023-08-24T04:20:38;1026.3;;;15.6;69
74431;BME280;62863;52.062;23.764;2023-08-24T04:25:56;1026.3;;;15.9;68.8
74431;BME280;62863;52.062;23.764;2023-08-24T04:31:08;1026.3;;;16.3;68
74431;BME280;62863;52.062;23.764;2023-08-24T04:35:45;1026.3;;;16.6;67.1
74431;BME280;62863;52.062;23.764;2023-08-24T04:40:45;1026.4;;;16.8;66.3
74431;BME280;62863;52.062;23.764;2023-08-24T04:46:08;1026.3;;;17.1;65.2
74431;BME280;62863;52.062;23.764;2023-08-24T04:51:00;1026.3;;;17.4;64.4
74431;BME280;62863;52.062;23.764;2023-08-24T04:56:08;1026.2;;;17.8;63.9
74431;BME280;62863;52.062;23.764;2023-08-24T05:00:56;1026.2;;;18.2;63
74431;BME280;62863;52.062;23.764;2023-08-24T05:05:54;1026.1;;;18.7;62.1
74431;BME280;62863;52.062;23.764;2023-08-24T05:10:36;1026.2;;;19.2;61.1
74431;BME280;62863;52.062;23.764;2023-08-24T05:15:36;1026.1;;;19.8;59.8
74431;BME280;62863;52.062;23.764;2023-08-24T05:21:08;1026.1;;;20.5;59
74431;BME280;62863;52.062;23.764;2023-08-24T05:25:34;1026;;;21.2;56.8
74431;BME280;62863;52.062;23.764;2023-08-24T05:30:32;1026.1;;;21.7;55.6
74431;BME280;62863;52.062;23.764;2023-08-24T05:35:42;1026.1;;;22.5;54.9
74431;BME280;62863;52.062;23.764;2023-08-24T05:40:33;1026.1;;;23.4;53.6
74431;BME280;62863;52.062;23.764;2023-08-24T05:45:32;1026.1;;;24.8;50
74431;BME280;62863;52.062;23.764;2023-08-24T05:51:08;1026;;;26.9;44.7
74431;BME280;62863;52.062;23.764;2023-08-24T05:55:36;1026;;;26.1;46
74431;BME280;62863;52.062;23.764;2023-08-24T06:00:55;1026;;;25.5;47.7
74431;BME280;62863;52.062;23.764;2023-08-24T06:06:08;1026;;;24.9;48.1
74431;BME280;62863;52.062;23.764;2023-08-24T06:10:54;1026.1;;;24.4;49.6
74431;BME280;62863;52.062;23.764;2023-08-24T06:15:32;1026;;;24.2;50.4
74431;BME280;62863;52.062;23.764;2023-08-24T06:20:56;1026;;;24;51
74431;BME280;62863;52.062;23.764;2023-08-24T06:26:08;1026;;;23.9;51.6
74431;BME280;62863;52.062;23.764;2023-08-24T06:31:08;1025.9;;;23.8;52.1
74431;BME280;62863;52.062;23.764;2023-08-24T06:36:08;1026;;;24;52.2
74431;BME280;62863;52.062;23.764;2023-08-24T06:41:08;1025.9;;;24.1;51.2
74431;BME280;62863;52.062;23.764;2023-08-24T06:45:43;1026;;;24.1;50.2
74431;BME280;62863;52.062;23.764;2023-08-24T06:50:32;1026;;;24.5;49.7
74431;BME280;62863;52.062;23.764;2023-08-24T06:55:58;1025.8;;;27.3;44.3
74431;BME280;62863;52.062;23.764;2023-08-24T07:01:08;1025.6;;;32.8;35
74431;BME280;62863;52.062;23.764;2023-08-24T07:06:00;1025.5;;;36.5;30.2
74431;BME280;62863;52.062;23.764;2023-08-24T07:10:34;1025.5;;;39.4;27.7
74431;BME280;62863;52.062;23.764;2023-08-24T07:16:08;1025.4;;;41.1;25.9
74431;BME280;62863;52.062;23.764;2023-08-24T07:20:32;1025.4;;;42.1;24.6
74431;BME280;62863;52.062;23.764;2023-08-24T07:26:00;1025.4;;;43;23.6
74431;BME280;62863;52.062;23.764;2023-08-24T07:30:48;1025.3;;;43.3;23.2
74431;BME280;62863;52.062;23.764;2023-08-24T07:36:08;1025.2;;;43.9;21.8
74431;BME280;62863;52.062;23.764;2023-08-24T07:41:00;1025.2;;;44.3;20.1
74431;BME280;62863;52.062;23.764;2023-08-24T07:46:06;1025.2;;;44;19.7
74431;BME280;62863;52.062;23.764;2023-08-24T07:50:42;1025.2;;;43.7;19.7
74431;BME280;62863;52.062;23.764;2023-08-24T07:55:32;1025.2;;;43.5;19.5
74431;BME280;62863;52.062;23.764;2023-08-24T08:01:08;1025.2;;;43.5;19.9
74431;BME280;62863;52.062;23.764;2023-08-24T08:05:48;1025.2;;;43.6;19.6
74431;BME280;62863;52.062;23.764;2023-08-24T08:11:02;1025.2;;;43.5;20.1
74431;BME280;62863;52.062;23.764;2023-08-24T08:16:00;1025.3;;;42.3;20.2
74431;BME280;62863;52.062;23.764;2023-08-24T08:20:32;1025.3;;;41.1;20.6
74431;BME280;62863;52.062;23.764;2023-08-24T08:25:44;1025.3;;;40.8;21.1
74431;BME280;62863;52.062;23.764;2023-08-24T08:31:06;1025.3;;;40.3;21.7
74431;BME280;62863;52.062;23.764;2023-08-24T08:35:56;1025.3;;;39.5;21.8
74431;BME280;62863;52.062;23.764;2023-08-24T08:40:36;1025.3;;;38.9;22.5
74431;BME280;62863;52.062;23.764;2023-08-24T08:45:56;1025.3;;;38.1;23.5
74431;BME280;62863;52.062;23.764;2023-08-24T08:50:42;1025.4;;;36.5;25.4
74431;BME280;62863;52.062;23.764;2023-08-24T08:56:08;1025.4;;;35.4;26.4
74431;BME280;62863;52.062;23.764;2023-08-24T09:01:08;1025.4;;;34.8;28.3
74431;BME280;62863;52.062;23.764;2023-08-24T09:06:08;1025.4;;;34.3;27.7
74431;BME280;62863;52.062;23.764;2023-08-24T09:10:36;1025.3;;;33.8;29.3
74431;BME280;62863;52.062;23.764;2023-08-24T09:15:44;1025.3;;;33.7;29.4
74431;BME280;62863;52.062;23.764;2023-08-24T09:20:54;1025.3;;;33.4;29.1
74431;BME280;62863;52.062;23.764;2023-08-24T09:26:08;1025.3;;;33;29.3
74431;BME280;62863;52.062;23.764;2023-08-24T09:31:00;1025.2;;;33;29.8
74431;BME280;62863;52.062;23.764;2023-08-24T09:35:56;1025.2;;;32.8;30.1
74431;BME280;62863;52.062;23.764;2023-08-24T09:40:40;1025.2;;;32.7;30.4
74431;BME280;62863;52.062;23.764;2023-08-24T09:45:32;1025.1;;;32.8;30.5
74431;BME280;62863;52.062;23.764;2023-08-24T09:50:36;1025.1;;;32.9;29.8
74431;BME280;62863;52.062;23.764;2023-08-24T09:55:44;1025;;;33.2;29.5
74431;BME280;62863;52.062;23.764;2023-08-24T10:01:08;1025;;;33.5;29.4
74431;BME280;62863;52.062;23.764;2023-08-24T10:06:00;1025;;;33.2;29.2
74431;BME280;62863;52.062;23.764;2023-08-24T10:10:56;1025;;;32.8;29.7
74431;BME280;62863;52.062;23.764;2023-08-24T10:15:36;1025;;;32.3;30.5
74431;BME280;62863;52.062;23.764;2023-08-24T10:20:32;1025;;;32.4;30.4
74431;BME280;62863;52.062;23.764;2023-08-24T10:26:08;1025;;;32.9;29.6
74431;BME280;62863;52.062;23.764;2023-08-24T10:30:44;1024.9;;;32.7;29.6
74431;BME280;62863;52.062;23.764;2023-08-24T10:35:42;1025;;;32.1;30.1
74431;BME280;62863;52.062;23.764;2023-08-24T10:41:01;1024.9;;;31.1;31.7
74431;BME280;62863;52.062;23.764;2023-08-24T10:46:11;1024.9;;;31;31.8
74431;BME280;62863;52.062;23.764;2023-08-24T10:50:32;1024.9;;;31.2;32.6
74431;BME280;62863;52.062;23.764;2023-08-24T10:55:46;1024.8;;;30.9;33.5
74431;BME280;62863;52.062;23.764;2023-08-24T11:01:00;1024.8;;;30.8;34.2
74431;BME280;62863;52.062;23.764;2023-08-24T11:05:32;1024.7;;;30.8;33.8
74431;BME280;62863;52.062;23.764;2023-08-24T11:10:46;1024.7;;;31.4;32
74431;BME280;62863;52.062;23.764;2023-08-24T11:15:32;1024.6;;;32.2;30.3
74431;BME280;62863;52.062;23.764;2023-08-24T11:21:08;1024.6;;;33;30
74431;BME280;62863;52.062;23.764;2023-08-24T11:25:32;1024.6;;;33;29.2
74431;BME280;62863;52.062;23.764;2023-08-24T11:30:32;1024.6;;;32.8;29.4
74431;BME280;62863;52.062;23.764;2023-08-24T11:36:08;1024.6;;;32.9;29
74431;BME280;62863;52.062;23.764;2023-08-24T11:40:48;1024.6;;;33.1;29.1
74431;BME280;62863;52.062;23.764;2023-08-24T11:45:32;1024.6;;;33.2;28.7
74431;BME280;62863;52.062;23.764;2023-08-24T11:50:42;1024.6;;;32.8;29.3
74431;BME280;62863;52.062;23.764;2023-08-24T11:55:54;1024.6;;;32.4;30.4
74431;BME280;62863;52.062;23.764;2023-08-24T12:00:32;1024.6;;;32.1;30.2
74431;BME280;62863;52.062;23.764;2023-08-24T12:05:32;1024.6;;;31.5;30.6
74431;BME280;62863;52.062;23.764;2023-08-24T12:11:12;1024.5;;;31;31.9
74431;BME280;62863;52.062;23.764;2023-08-24T12:15:54;1024.5;;;30.5;32.7
74431;BME280;62863;52.062;23.764;2023-08-24T12:20:46;1024.5;;;30.4;33.1
74431;BME280;62863;52.062;23.764;2023-08-24T12:25:36;1024.4;;;31;32.8
74431;BME280;62863;52.062;23.764;2023-08-24T12:30:32;1024.3;;;31;32
74431;BME280;62863;52.062;23.764;2023-08-24T12:35:36;1024.3;;;30.8;33.1
74431;BME280;62863;52.062;23.764;2023-08-24T12:41:08;1024.2;;;30.9;32.8
74431;BME280;62863;52.062;23.764;2023-08-24T12:45:56;1024.2;;;31.1;33.2
74431;BME280;62863;52.062;23.764;2023-08-24T12:50:50;1024.1;;;31.3;32.9
74431;BME280;62863;52.062;23.764;2023-08-24T12:55:54;1024;;;31.7;31.5
74431;BME280;62863;52.062;23.764;2023-08-24T13:00:42;1024;;;31.9;31
74431;BME280;62863;52.062;23.764;2023-08-24T13:05:32;1024;;;32.1;30.4
74431;BME280;62863;52.062;23.764;2023-08-24T13:10:32;1023.9;;;32.3;30.2
74431;BME280;62863;52.062;23.764;2023-08-24T13:16:08;1023.9;;;32.3;29.5
74431;BME280;62863;52.062;23.764;2023-08-24T13:20:42;1023.8;;;31.9;30.4
74431;BME280;62863;52.062;23.764;2023-08-24T13:25:52;1023.9;;;31.1;31.4
74431;BME280;62863;52.062;23.764;2023-08-24T13:30:40;1023.9;;;30.5;32.9
74431;BME280;62863;52.062;23.764;2023-08-24T13:35:54;1023.9;;;30.1;33.2
74431;BME280;62863;52.062;23.764;2023-08-24T13:40:34;1023.8;;;29.8;34.6
74431;BME280;62863;52.062;23.764;2023-08-24T13:45:54;1023.8;;;29.8;33.8
74431;BME280;62863;52.062;23.764;2023-08-24T13:51:06;1023.8;;;29.6;34
74431;BME280;62863;52.062;23.764;2023-08-24T13:56:06;1023.8;;;29.5;35
74431;BME280;62863;52.062;23.764;2023-08-24T14:01:06;1023.8;;;29.1;34.9
74431;BME280;62863;52.062;23.764;2023-08-24T14:06:06;1023.8;;;28.6;35.9
74431;BME280;62863;52.062;23.764;2023-08-24T14:10:32;1023.8;;;28.1;37.3
74431;BME280;62863;52.062;23.764;2023-08-24T14:15:34;1023.9;;;27.6;38.2
74431;BME280;62863;52.062;23.764;2023-08-24T14:20:34;1023.9;;;27.3;39.1
74431;BME280;62863;52.062;23.764;2023-08-24T14:26:10;1023.9;;;27.1;40.3
74431;BME280;62863;52.062;23.764;2023-08-24T14:31:00;1023.9;;;26.8;41.5
74431;BME280;62863;52.062;23.764;2023-08-24T14:35:56;1023.9;;;26.7;42.1
74431;BME280;62863;52.062;23.764;2023-08-24T14:41:08;1023.9;;;26.7;41.6
74431;BME280;62863;52.062;23.764;2023-08-24T14:45:46;1023.9;;;27;41.8
74431;BME280;62863;52.062;23.764;2023-08-24T14:50:32;1023.8;;;27.2;41.3
74431;BME280;62863;52.062;23.764;2023-08-24T14:55:48;1023.8;;;27.4;41.3
74431;BME280;62863;52.062;23.764;2023-08-24T15:01:06;1023.8;;;27.6;40.5
74431;BME280;62863;52.062;23.764;2023-08-24T15:05:55;1023.7;;;27.7;39.3
74431;BME280;62863;52.062;23.764;2023-08-24T15:10:57;1023.7;;;27.7;39.6
74431;BME280;62863;52.062;23.764;2023-08-24T15:15:42;1023.7;;;27.7;38.7
74431;BME280;62863;52.062;23.764;2023-08-24T15:20:46;1023.6;;;27.7;38.5
74431;BME280;62863;52.062;23.764;2023-08-24T15:26:08;1023.6;;;27.7;39.3
74431;BME280;62863;52.062;23.764;2023-08-24T15:30:44;1023.6;;;27.6;39.4
74431;BME280;62863;52.062;23.764;2023-08-24T15:35:42;1023.6;;;27.6;40.8
74431;BME280;62863;52.062;23.764;2023-08-24T15:40:56;1023.7;;;27.5;41.6
74431;BME280;62863;52.062;23.764;2023-08-24T15:46:08;1023.7;;;27.4;39.3
74431;BME280;62863;52.062;23.764;2023-08-24T15:50:48;1023.7;;;27.3;39.9
74431;BME280;62863;52.062;23.764;2023-08-24T15:55:50;1023.6;;;27.3;40
74431;BME280;62863;52.062;23.764;2023-08-24T16:01:00;1023.6;;;27.2;39.4
74431;BME280;62863;52.062;23.764;2023-08-24T16:05:44;1023.6;;;27.1;39.8
74431;BME280;62863;52.062;23.764;2023-08-24T16:10:36;1023.5;;;27.1;40.9
74431;BME280;62863;52.062;23.764;2023-08-24T16:15:42;1023.5;;;27.1;41.5
74431;BME280;62863;52.062;23.764;2023-08-24T16:21:08;1023.4;;;27.4;40.3
74431;BME280;62863;52.062;23.764;2023-08-24T16:25:36;1023.4;;;27.4;40.4
74431;BME280;62863;52.062;23.764;2023-08-24T16:30:36;1023.4;;;27.2;40.9
74431;BME280;62863;52.062;23.764;2023-08-24T16:36:08;1023.4;;;27;41.6
74431;BME280;62863;52.062;23.764;2023-08-24T16:41:00;1023.4;;;26.7;42.2
74431;BME280;62863;52.062;23.764;2023-08-24T16:45:37;1023.4;;;26.3;43
74431;BME280;62863;52.062;23.764;2023-08-24T16:50:32;1023.5;;;26;44.8
74431;BME280;62863;52.062;23.764;2023-08-24T16:55:44;1023.6;;;25.6;46
74431;BME280;62863;52.062;23.764;2023-08-24T17:00:44;1023.6;;;25.2;46.5
74431;BME280;62863;52.062;23.764;2023-08-24T17:05:54;1023.6;;;24.9;47.3
74431;BME280;62863;52.062;23.764;2023-08-24T17:11:08;1023.6;;;24.6;48.9
74431;BME280;62863;52.062;23.764;2023-08-24T17:15:54;1023.7;;;24.3;49.7
74431;BME280;62863;52.062;23.764;2023-08-24T17:20:46;1023.7;;;24;51.5
74431;BME280;62863;52.062;23.764;2023-08-24T17:25:44;1023.8;;;23.8;52.7
74431;BME280;62863;52.062;23.764;2023-08-24T17:30:36;1023.8;;;23.6;53.6
74431;BME280;62863;52.062;23.764;2023-08-24T17:35:32;1023.9;;;23.4;54.6
74431;BME280;62863;52.062;23.764;2023-08-24T17:40:48;1024;;;23.1;55.3
74431;BME280;62863;52.062;23.764;2023-08-24T17:45:56;1024;;;22.8;55.8
74431;BME280;62863;52.062;23.764;2023-08-24T17:50:55;1024;;;22.6;56.5
74431;BME280;62863;52.062;23.764;2023-08-24T17:55:34;1024;;;22.5;56.3
74431;BME280;62863;52.062;23.764;2023-08-24T18:00:32;1024.1;;;22.4;56.7
74431;BME280;62863;52.062;23.764;2023-08-24T18:06:08;1024.1;;;22.2;57
74431;BME280;62863;52.062;23.764;2023-08-24T18:10:32;1024.2;;;22;58.4
74431;BME280;62863;52.062;23.764;2023-08-24T18:16:08;1024.3;;;21.8;58.8
74431;BME280;62863;52.062;23.764;2023-08-24T18:20:46;1024.3;;;21.6;59.4
74431;BME280;62863;52.062;23.764;2023-08-24T18:25:54;1024.3;;;21.4;59.2
74431;BME280;62863;52.062;23.764;2023-08-24T18:31:08;1024.3;;;21.3;58.8
74431;BME280;62863;52.062;23.764;2023-08-24T18:35:56;1024.3;;;21;59.2
74431;BME280;62863;52.062;23.764;2023-08-24T18:40:38;1024.3;;;20.8;60.8
74431;BME280;62863;52.062;23.764;2023-08-24T18:45:56;1024.3;;;20.7;61.6
74431;BME280;62863;52.062;23.764;2023-08-24T18:51:08;1024.4;;;20.7;62.5
74431;BME280;62863;52.062;23.764;2023-08-24T18:56:08;1024.5;;;20.6;63.5
74431;BME280;62863;52.062;23.764;2023-08-24T19:01:11;1024.5;;;20.6;65.6
74431;BME280;62863;52.062;23.764;2023-08-24T19:06:10;1024.4;;;20.5;66.2
74431;BME280;62863;52.062;23.764;2023-08-24T19:10:38;1024.5;;;20.5;66
74431;BME280;62863;52.062;23.764;2023-08-24T19:15:38;1024.3;;;20.4;65.3
74431;BME280;62863;52.062;23.764;2023-08-24T19:20:58;1024.3;;;20.3;64.8
74431;BME280;62863;52.062;23.764;2023-08-24T19:26:10;1024.2;;;20.1;65.2
74431;BME280;62863;52.062;23.764;2023-08-24T19:31:02;1024.3;;;20;66.1
74431;BME280;62863;52.062;23.764;2023-08-24T19:35:58;1024.4;;;19.9;67
74431;BME280;62863;52.062;23.764;2023-08-24T19:40:42;1024.4;;;19.8;67.2
74431;BME280;62863;52.062;23.764;2023-08-24T19:45:32;1024.4;;;19.7;67.7
74431;BME280;62863;52.062;23.764;2023-08-24T19:51:10;1024.4;;;19.6;67.9
74431;BME280;62863;52.062;23.764;2023-08-24T19:55:40;1024.3;;;19.5;68
74431;BME280;62863;52.062;23.764;2023-08-24T20:00:51;1024.3;;;19.5;67.4
74431;BME280;62863;52.062;23.764;2023-08-24T20:06:02;1024.4;;;19.4;67.1
74431;BME280;62863;52.062;23.764;2023-08-24T20:11:10;1024.4;;;19.4;67.5
74431;BME280;62863;52.062;23.764;2023-08-24T20:16:02;1024.5;;;19.3;68
74431;BME280;62863;52.062;23.764;2023-08-24T20:20:44;1024.7;;;19.2;68.3
74431;BME280;62863;52.062;23.764;2023-08-24T20:25:34;1024.7;;;19.2;69
74431;BME280;62863;52.062;23.764;2023-08-24T20:30:50;1024.7;;;19.1;69
74431;BME280;62863;52.062;23.764;2023-08-24T20:35:38;1024.7;;;18.9;68.8
74431;BME280;62863;52.062;23.764;2023-08-24T20:40:46;1024.6;;;18.9;68.7
74431;BME280;62863;52.062;23.764;2023-08-24T20:46:10;1024.6;;;18.8;68.9
74431;BME280;62863;52.062;23.764;2023-08-24T20:50:44;1024.6;;;18.7;69.4
74431;BME280;62863;52.062;23.764;2023-08-24T20:55:38;1024.7;;;18.7;70.5
74431;BME280;62863;52.062;23.764;2023-08-24T21:01:10;1024.8;;;18.7;70.4
74431;BME280;62863;52.062;23.764;2023-08-24T21:05:56;1024.8;;;18.7;70.2
74431;BME280;62863;52.062;23.764;2023-08-24T21:10:57;1024.8;;;18.6;69.8
74431;BME280;62863;52.062;23.764;2023-08-24T21:15:44;1024.7;;;18.6;69.4
74431;BME280;62863;52.062;23.764;2023-08-24T21:20:53;1024.7;;;18.6;69.7
74431;BME280;62863;52.062;23.764;2023-08-24T21:25:32;1024.7;;;18.6;69.5
74431;BME280;62863;52.062;23.764;2023-08-24T21:30:38;1024.6;;;18.5;69.6
74431;BME280;62863;52.062;23.764;2023-08-24T21:36:10;1024.5;;;18.4;69.7
74431;BME280;62863;52.062;23.764;2023-08-24T21:40:46;1024.5;;;18.3;70
74431;BME280;62863;52.062;23.764;2023-08-24T21:45:38;1024.5;;;18.2;70.2
74431;BME280;62863;52.062;23.764;2023-08-24T21:50:44;1024.6;;;18.2;70.8
74431;BME280;62863;52.062;23.764;2023-08-24T21:55:38;1024.5;;;18.1;71.5
74431;BME280;62863;52.062;23.764;2023-08-24T22:00:38;1024.5;;;18.2;71.1
74431;BME280;62863;52.062;23.764;2023-08-24T22:05:32;1024.5;;;18.1;71.6
74431;BME280;62863;52.062;23.764;2023-08-24T22:10:58;1024.5;;;18;72
74431;BME280;62863;52.062;23.764;2023-08-24T22:15:56;1024.5;;;18;72.3
74431;BME280;62863;52.062;23.764;2023-08-24T22:20:56;1024.5;;;17.9;72.4
74431;BME280;62863;52.062;23.764;2023-08-24T22:25:32;1024.5;;;17.9;72.1
74431;BME280;62863;52.062;23.764;2023-08-24T22:30:32;1024.5;;;17.9;71.8
74431;BME280;62863;52.062;23.764;2023-08-24T22:35:32;1024.5;;;17.9;71.3
74431;BME280;62863;52.062;23.764;2023-08-24T22:41:10;1024.4;;;17.8;71.1
74431;BME280;62863;52.062;23.764;2023-08-24T22:45:48;1024.4;;;17.8;71.4
74431;BME280;62863;52.062;23.764;2023-08-24T22:50:56;1024.3;;;17.7;71.3
74431;BME280;62863;52.062;23.764;2023-08-24T22:56:08;1024.4;;;17.6;71.7
74431;BME280;62863;52.062;23.764;2023-08-24T23:00:58;1024.4;;;17.6;72.8
74431;BME280;62863;52.062;23.764;2023-08-24T23:05:44;1024.3;;;17.6;73.1
74431;BME280;62863;52.062;23.764;2023-08-24T23:10:52;1024.1;;;17.6;72.4
74431;BME280;62863;52.062;23.764;2023-08-24T23:16:10;1024.1;;;17.5;72.3
74431;BME280;62863;52.062;23.764;2023-08-24T23:21:10;1024.1;;;17.4;72.2
74431;BME280;62863;52.062;23.764;2023-08-24T23:26:12;1024.1;;;17.4;72.1
74431;BME280;62863;52.062;23.764;2023-08-24T23:31:10;1024;;;17.3;71.6
74431;BME280;62863;52.062;23.764;2023-08-24T23:35:32;1024;;;17.2;71.7
74431;BME280;62863;52.062;23.764;2023-08-24T23:40:33;1024;;;17.1;71.9
74431;BME280;62863;52.062;23.764;2023-08-24T23:45:58;1023.9;;;17.1;72.1
74431;BME280;62863;52.062;23.764;2023-08-24T23:51:10;1023.9;;;17.1;72
74431;BME280;62863;52.062;23.764;2023-08-24T23:56:02;1024;;;17.1;72.4
